Time;durP1;ratioP1;P1;durP2;ratioP2;P2;SDS_P1;SDS_P2;PMS_P1;PMS_P2;Temp;Humidity;BMP_temperature;BMP_pressure;BME280_temperature;BME280_humidity;BME280_pressure;Samples;Min_cycle;Max_cycle;Signal;HPM_P1;HPM_P2
2022/05/17 00:00:34;;;;;;;0.20;0.20;;;;;;;30.18;31.90;97069.91;5084153;28;20039;-31
2022/05/17 00:03:00;;;;;;;0.20;0.20;;;;;;;30.17;32.04;97076.13;5081448;28;20023;-31
2022/05/17 00:05:27;;;;;;;0.10;0.10;;;;;;;30.17;32.29;97078.75;5086470;28;20584;-30
2022/05/17 00:07:53;;;;;;;0.20;0.20;;;;;;;30.16;32.45;97071.78;5083866;28;20035;-31
2022/05/17 00:10:19;;;;;;;0.30;0.25;;;;;;;30.16;32.11;97077.06;5085854;28;20115;-32
2022/05/17 00:12:44;;;;;;;0.20;0.20;;;;;;;30.16;31.98;97074.44;5084310;28;20059;-30
2022/05/17 00:15:10;;;;;;;0.73;0.47;;;;;;;30.16;31.89;97077.06;5085101;28;20035;-31
2022/05/17 00:17:35;;;;;;;0.38;0.30;;;;;;;30.16;32.09;97076.25;5081598;28;20383;-32
2022/05/17 00:20:00;;;;;;;0.30;0.22;;;;;;;30.15;32.40;97080.66;5084821;28;20765;-30
2022/05/17 00:22:26;;;;;;;0.20;0.20;;;;;;;30.15;32.01;97078.03;5085176;28;20042;-31
2022/05/17 00:24:51;;;;;;;0.17;0.10;;;;;;;30.15;32.36;97080.66;5084804;28;20039;-32
2022/05/17 00:27:17;;;;;;;0.32;0.30;;;;;;;30.14;32.09;97078.97;5084390;28;20549;-30
2022/05/17 00:29:42;;;;;;;0.20;0.20;;;;;;;30.15;32.12;97078.03;5081798;28;20032;-30
2022/05/17 00:32:08;;;;;;;0.10;0.10;;;;;;;30.15;32.15;97079.81;5082196;28;20696;-32
2022/05/17 00:34:34;;;;;;;0.10;0.10;;;;;;;30.14;32.29;97078.13;5080608;28;20317;-32
2022/05/17 00:37:00;;;;;;;0.20;0.20;;;;;;;30.14;32.42;97078.13;5084662;28;20597;-31
2022/05/17 00:39:25;;;;;;;0.17;0.17;;;;;;;30.12;32.52;97079.09;5087153;28;20038;-30
2022/05/17 00:41:50;;;;;;;0.20;0.20;;;;;;;30.13;32.50;97074.63;5083493;28;20028;-31
2022/05/17 00:47:09;;;;;;;0.20;0.20;;;;;;;30.14;32.31;97072.84;5082435;28;20039;-31
2022/05/17 00:49:38;;;;;;;0.15;0.15;;;;;;;30.12;32.36;97059.72;5081215;28;20040;-30
2022/05/17 00:52:31;;;;;;;0.10;0.10;;;;;;;30.12;32.47;97070.28;5080683;28;20142;-31
2022/05/17 00:54:59;;;;;;;0.10;0.10;;;;;;;30.12;31.94;97065.88;5076848;28;20126;-30
2022/05/17 00:57:31;;;;;;;0.30;0.10;;;;;;;30.12;32.21;97065.00;5091114;28;20035;-31
2022/05/17 00:59:58;;;;;;;0.20;0.20;;;;;;;30.11;32.02;97058.88;5082530;28;20027;-32
2022/05/17 01:02:24;;;;;;;0.30;0.20;;;;;;;30.11;32.51;97068.56;5083545;28;20248;-32
2022/05/17 01:04:50;;;;;;;0.70;0.13;;;;;;;30.10;32.04;97056.31;5063506;28;20566;-30
2022/05/17 01:07:20;;;;;;;1.42;0.20;;;;;;;30.10;32.08;97062.44;5081360;28;20035;-34
2022/05/17 01:09:45;;;;;;;0.20;0.10;;;;;;;30.10;32.06;97057.16;5082717;28;20091;-32
2022/05/17 01:12:10;;;;;;;0.20;0.20;;;;;;;30.10;31.91;97056.31;5081388;28;20036;-32
2022/05/17 01:17:22;;;;;;;0.30;0.30;;;;;;;30.10;32.07;97045.75;5083072;28;20046;-31
2022/05/17 01:19:47;;;;;;;0.10;0.10;;;;;;;30.10;32.32;97057.16;5082647;28;20023;-31
2022/05/17 01:22:13;;;;;;;0.15;0.15;;;;;;;30.09;31.94;97057.28;5080574;28;20024;-32
2022/05/17 01:24:39;;;;;;;0.20;0.20;;;;;;;30.10;32.40;97056.31;5081696;28;20430;-32
2022/05/17 01:27:25;;;;;;;0.20;0.20;;;;;;;30.09;32.28;97052.81;5081075;28;20040;-31
2022/05/17 01:29:50;;;;;;;0.10;0.10;;;;;;;30.09;31.86;97062.56;5086178;28;20040;-31
2022/05/17 01:32:16;;;;;;;0.25;0.20;;;;;;;30.08;32.39;97060.84;5086919;28;20032;-30
2022/05/17 01:34:43;;;;;;;0.45;0.20;;;;;;;30.09;32.16;97065.19;5086225;28;20070;-33
2022/05/17 01:37:08;;;;;;;0.10;0.10;;;;;;;30.08;31.89;97058.19;5083915;28;20507;-30
2022/05/17 01:39:34;;;;;;;0.20;0.20;;;;;;;30.08;32.19;97060.84;5082088;28;22059;-31
2022/05/17 01:41:59;;;;;;;0.63;0.40;;;;;;;30.07;32.37;97067.94;5083594;28;20051;-31
2022/05/17 01:44:25;;;;;;;0.10;0.10;;;;;;;30.07;31.99;97064.44;5081784;28;20457;-33
2022/05/17 01:46:51;;;;;;;0.43;0.20;;;;;;;30.06;31.90;97062.75;5082344;28;20131;-30
2022/05/17 01:49:16;;;;;;;0.20;0.20;;;;;;;30.07;31.71;97067.09;5084608;28;20466;-30
2022/05/17 01:51:42;;;;;;;0.30;0.30;;;;;;;30.07;32.05;97056.50;5080439;28;20041;-31
2022/05/17 01:54:07;;;;;;;0.10;0.10;;;;;;;30.07;32.15;97056.50;5081286;28;20032;-31
2022/05/17 01:56:33;;;;;;;0.30;0.10;;;;;;;30.07;31.81;97056.50;5082629;28;20042;-30
2022/05/17 01:58:59;;;;;;;0.20;0.20;;;;;;;30.06;32.34;97058.28;5083222;28;20590;-31
2022/05/17 02:01:25;;;;;;;0.20;0.15;;;;;;;30.07;31.86;97053.88;5082688;28;20023;-32
2022/05/17 02:03:51;;;;;;;0.10;0.10;;;;;;;30.06;32.15;97054.81;5082479;28;20032;-32
2022/05/17 02:06:17;;;;;;;0.10;0.10;;;;;;;30.06;32.03;97054.81;5080715;28;20122;-31
2022/05/17 02:08:42;;;;;;;0.20;0.20;;;;;;;30.06;32.33;97050.38;5081746;28;20049;-30
2022/05/17 02:11:08;;;;;;;0.20;0.20;;;;;;;30.06;31.89;97054.81;5081199;28;20028;-30
2022/05/17 02:13:33;;;;;;;0.10;0.10;;;;;;;30.05;32.55;97050.50;5083630;28;20398;-30
2022/05/17 02:15:59;;;;;;;0.15;0.15;;;;;;;30.05;32.03;97047.84;5084497;28;20042;-32
2022/05/17 02:18:24;;;;;;;1.17;0.20;;;;;;;30.05;32.27;97050.50;5080141;28;20027;-30
2022/05/17 02:20:49;;;;;;;0.20;0.20;;;;;;;30.04;32.13;97048.78;5089205;28;20024;-31
2022/05/17 02:23:15;;;;;;;0.20;0.20;;;;;;;30.04;32.21;97054.06;5081153;28;20038;-32
2022/05/17 02:25:40;;;;;;;0.25;0.17;;;;;;;30.03;31.68;97047.09;5082674;28;20064;-29
2022/05/17 02:28:11;;;;;;;0.95;0.32;;;;;;;30.03;31.98;97044.44;5083174;28;20546;-29
2022/05/17 02:30:39;;;;;;;0.10;0.10;;;;;;;30.04;31.86;97052.28;5080442;28;20020;-30
2022/05/17 02:33:06;;;;;;;0.20;0.10;;;;;;;30.03;31.93;97049.75;5080057;28;20066;-30
2022/05/17 02:35:31;;;;;;;0.35;0.20;;;;;;;30.03;32.22;97049.75;5085626;28;20042;-31
2022/05/17 02:37:57;;;;;;;0.63;0.20;;;;;;;30.02;31.85;97048.06;5083861;28;20032;-31
2022/05/17 02:40:22;;;;;;;0.20;0.20;;;;;;;30.02;32.17;97055.97;5085803;28;20116;-32
2022/05/17 02:42:47;;;;;;;0.98;0.30;;;;;;;30.02;32.37;97054.19;5086099;28;20775;-30
2022/05/17 02:45:13;;;;;;;0.20;0.20;;;;;;;30.02;31.82;97055.97;5085560;28;20039;-31
2022/05/17 02:47:38;;;;;;;0.20;0.20;;;;;;;30.02;31.88;97058.63;5084517;28;20055;-30
2022/05/17 02:50:04;;;;;;;0.10;0.10;;;;;;;30.02;32.33;97055.97;5087353;28;20031;-32
2022/05/17 02:52:29;;;;;;;1.45;0.22;;;;;;;30.01;31.71;97062.22;5082918;28;20048;-31
2022/05/17 02:54:55;;;;;;;0.08;0.08;;;;;;;30.01;32.18;97062.22;5081607;28;20072;-30
2022/05/17 02:57:20;;;;;;;0.25;0.20;;;;;;;30.01;31.86;97059.59;5088417;28;20398;-32
2022/05/17 02:59:46;;;;;;;0.20;0.20;;;;;;;30.00;31.81;97066.66;5085942;28;20028;-31
2022/05/17 03:02:11;;;;;;;1.00;0.38;;;;;;;29.99;31.82;97068.44;5087284;28;20036;-41
2022/05/17 03:04:36;;;;;;;0.55;0.17;;;;;;;30.01;32.29;97072.78;5084109;28;20042;-30
2022/05/17 03:07:02;;;;;;;0.43;0.10;;;;;;;29.99;31.88;97065.78;5085356;28;20032;-31
2022/05/17 03:09:27;;;;;;;0.20;0.20;;;;;;;29.99;32.13;97065.78;5086313;28;20027;-31
2022/05/17 03:11:53;;;;;;;0.50;0.30;;;;;;;29.99;31.95;97070.25;5085423;28;20036;-34
2022/05/17 03:14:18;;;;;;;0.88;0.30;;;;;;;29.99;31.92;97071.06;5087047;28;20028;-34
2022/05/17 03:16:44;;;;;;;0.20;0.20;;;;;;;29.98;32.09;97074.66;5085493;28;20105;-30
2022/05/17 03:19:10;;;;;;;0.20;0.20;;;;;;;29.98;31.90;97079.97;5084865;28;20044;-31
2022/05/17 03:21:35;;;;;;;0.20;0.20;;;;;;;29.99;32.10;97086.09;5082124;28;20024;-33
2022/05/17 03:24:01;;;;;;;0.30;0.30;;;;;;;29.98;32.19;97085.25;5085147;28;20101;-30
2022/05/17 03:26:26;;;;;;;0.20;0.20;;;;;;;29.97;31.93;97088.84;5085594;28;20269;-30
2022/05/17 03:28:53;;;;;;;0.10;0.10;;;;;;;29.97;32.20;97094.13;5084187;28;20031;-31
2022/05/17 03:31:18;;;;;;;0.25;0.20;;;;;;;29.97;31.74;97094.13;5085433;28;20102;-31
2022/05/17 03:33:43;;;;;;;0.10;0.10;;;;;;;29.96;31.81;97097.72;5085434;28;20032;-29
2022/05/17 03:36:09;;;;;;;0.15;0.15;;;;;;;29.96;31.75;97096.84;5084582;28;20035;-29
2022/05/17 03:38:35;;;;;;;0.30;0.30;;;;;;;29.96;32.20;97099.50;5083904;28;20023;-31
2022/05/17 03:41:01;;;;;;;0.28;0.28;;;;;;;29.95;31.77;97096.00;5088244;28;20083;-30
2022/05/17 03:43:27;;;;;;;0.35;0.20;;;;;;;29.96;31.79;97099.50;5086291;28;20517;-29
2022/05/17 03:45:53;;;;;;;0.20;0.20;;;;;;;29.95;32.36;97100.47;5082393;28;20088;-29
2022/05/17 03:48:18;;;;;;;0.10;0.10;;;;;;;29.95;31.72;97106.56;5085756;28;20039;-30
2022/05/17 03:50:45;;;;;;;0.40;0.22;;;;;;;29.95;31.76;97103.09;5080201;28;20343;-30
2022/05/17 03:53:10;;;;;;;0.90;0.30;;;;;;;29.95;31.62;97111.03;5085066;28;20024;-30
2022/05/17 03:55:36;;;;;;;0.20;0.10;;;;;;;29.94;32.18;97098.78;5083336;28;20085;-29
2022/05/17 03:58:01;;;;;;;0.20;0.20;;;;;;;29.94;31.62;97109.34;5083227;28;20046;-29
2022/05/17 04:00:26;;;;;;;0.20;0.20;;;;;;;29.93;31.60;97113.75;5084617;28;20016;-28
2022/05/17 04:02:52;;;;;;;0.20;0.20;;;;;;;29.93;32.24;97107.63;5085245;28;20363;-28
2022/05/17 04:05:17;;;;;;;0.30;0.22;;;;;;;29.92;31.85;97122.66;5083019;28;20046;-30
2022/05/17 04:07:43;;;;;;;0.20;0.20;;;;;;;29.93;31.79;97123.47;5083878;27;20020;-28
2022/05/17 04:10:09;;;;;;;1.35;0.22;;;;;;;29.92;32.26;97121.78;5083048;28;20958;-31
2022/05/17 04:12:35;;;;;;;0.20;0.20;;;;;;;29.93;31.97;97123.47;5085243;28;20039;-29
2022/05/17 04:15:00;;;;;;;0.30;0.30;;;;;;;29.92;32.02;97122.66;5082488;28;20435;-30
2022/05/17 04:17:26;;;;;;;0.30;0.20;;;;;;;29.93;31.93;97128.75;5084612;28;20130;-29
2022/05/17 04:19:52;;;;;;;0.20;0.20;;;;;;;29.92;31.79;97125.28;5083512;28;20031;-29
2022/05/17 04:22:17;;;;;;;0.20;0.20;;;;;;;29.92;32.29;97127.94;5083686;28;20023;-29
2022/05/17 04:24:42;;;;;;;0.20;0.20;;;;;;;29.92;32.25;97133.22;5081317;28;20035;-29
2022/05/17 04:27:09;;;;;;;0.40;0.20;;;;;;;29.93;31.98;97128.75;5083141;28;20043;-32
2022/05/17 04:29:34;;;;;;;0.20;0.15;;;;;;;29.91;32.19;97126.25;5085517;28;20795;-30
2022/05/17 04:32:00;;;;;;;0.43;0.30;;;;;;;29.91;32.02;97128.88;5081172;28;20034;-36
2022/05/17 04:34:25;;;;;;;0.45;0.25;;;;;;;29.91;31.80;97125.38;5083935;28;20024;-29
2022/05/17 04:36:51;;;;;;;0.10;0.10;;;;;;;29.90;32.08;97135.09;5084042;28;20461;-29
2022/05/17 04:39:16;;;;;;;0.20;0.20;;;;;;;29.90;31.94;97135.09;5084085;28;20032;-30
2022/05/17 04:41:43;;;;;;;0.60;0.30;;;;;;;29.91;32.20;97134.16;5079735;28;20024;-31
2022/05/17 04:44:08;;;;;;;0.17;0.17;;;;;;;29.91;31.67;97136.81;5080373;28;20115;-29
2022/05/17 04:46:34;;;;;;;0.20;0.20;;;;;;;29.91;32.16;97134.16;5084999;28;20024;-29
2022/05/17 04:48:59;;;;;;;0.17;0.17;;;;;;;29.92;32.08;97138.50;5083384;28;20028;-31
2022/05/17 04:51:25;;;;;;;0.52;0.30;;;;;;;29.92;32.12;97138.50;5080095;28;20046;-30
2022/05/17 04:53:50;;;;;;;0.20;0.10;;;;;;;29.92;32.09;97137.63;5083794;28;20028;-31
2022/05/17 04:56:16;;;;;;;0.10;0.10;;;;;;;29.92;31.79;97133.22;5082425;28;20626;-31
2022/05/17 04:58:43;;;;;;;0.20;0.20;;;;;;;29.92;31.87;97143.78;5082781;28;20032;-30
2022/05/17 05:01:08;;;;;;;0.10;0.10;;;;;;;29.92;32.16;97141.13;5082330;28;20024;-30
2022/05/17 05:03:33;;;;;;;0.10;0.10;;;;;;;29.92;31.63;97143.78;5082948;28;20031;-29
2022/05/17 05:05:59;;;;;;;0.32;0.17;;;;;;;29.92;31.91;97143.78;5082819;28;20603;-29
2022/05/17 05:08:24;;;;;;;0.13;0.13;;;;;;;29.93;31.88;97139.31;5082700;28;20035;-29
2022/05/17 05:10:50;;;;;;;0.20;0.10;;;;;;;29.94;32.17;97139.22;5083783;28;20035;-29
2022/05/17 05:13:19;;;;;;;0.20;0.20;;;;;;;29.93;32.14;97134.91;5084552;28;20040;-30
2022/05/17 05:15:44;;;;;;;0.20;0.20;;;;;;;29.95;32.01;97140.09;5085849;28;20042;-31
2022/05/17 05:18:10;;;;;;;0.13;0.13;;;;;;;29.94;31.84;97135.75;5082287;28;20616;-32
2022/05/17 05:20:36;;;;;;;0.20;0.20;;;;;;;29.94;31.83;97139.22;5084052;28;20085;-30
2022/05/17 05:23:02;;;;;;;0.20;0.15;;;;;;;29.94;31.98;97147.16;5081775;28;20097;-30
2022/05/17 05:25:27;;;;;;;0.20;0.20;;;;;;;29.94;31.76;97141.88;5080824;28;20039;-29
2022/05/17 05:27:54;;;;;;;0.30;0.20;;;;;;;29.95;32.39;97148.84;5083123;28;20019;-31
2022/05/17 05:30:19;;;;;;;0.30;0.20;;;;;;;29.94;31.86;97147.16;5082761;28;20141;-31
2022/05/17 05:32:46;;;;;;;0.68;0.20;;;;;;;29.96;32.07;97147.06;5084815;28;20036;-30
2022/05/17 05:35:13;;;;;;;0.10;0.10;;;;;;;29.96;31.90;97152.34;5085559;28;20035;-30
2022/05/17 05:37:38;;;;;;;0.17;0.10;;;;;;;29.96;31.80;97158.50;5077899;28;20071;-32
2022/05/17 05:40:04;;;;;;;1.23;0.30;;;;;;;29.95;31.82;97159.41;5083082;28;20036;-30
2022/05/17 05:42:30;;;;;;;0.57;0.20;;;;;;;29.97;32.29;97151.41;5083243;28;20055;-30
2022/05/17 05:44:55;;;;;;;0.45;0.20;;;;;;;29.95;32.22;97156.78;5082916;28;20096;-32
2022/05/17 05:47:21;;;;;;;0.63;0.20;;;;;;;29.96;32.00;97161.13;5082969;28;20032;-30
2022/05/17 05:49:46;;;;;;;0.20;0.20;;;;;;;29.96;31.84;97155.00;5083690;28;20989;-31
2022/05/17 05:52:12;;;;;;;0.13;0.13;;;;;;;29.97;32.25;97162.81;5076665;28;20027;-29
2022/05/17 05:54:37;;;;;;;0.20;0.20;;;;;;;29.97;32.00;97162.81;5080820;28;20028;-30
2022/05/17 05:57:03;;;;;;;0.35;0.30;;;;;;;29.97;31.85;97165.47;5077928;28;20804;-37
2022/05/17 05:59:29;;;;;;;0.43;0.30;;;;;;;29.99;31.83;97160.91;5083961;28;20030;-31
2022/05/17 06:01:54;;;;;;;0.10;0.10;;;;;;;29.99;32.19;97160.91;5083070;28;20041;-28
2022/05/17 06:04:20;;;;;;;0.20;0.20;;;;;;;29.99;31.93;97162.72;5081725;28;20688;-34
2022/05/17 06:06:45;;;;;;;0.20;0.20;;;;;;;29.99;32.06;97165.38;5084227;28;20443;-29
2022/05/17 06:09:10;;;;;;;0.10;0.10;;;;;;;29.98;32.06;97167.16;5084133;28;20761;-30
2022/05/17 06:11:36;;;;;;;0.45;0.20;;;;;;;29.99;31.80;97166.19;5082668;28;20042;-31
2022/05/17 06:14:01;;;;;;;0.43;0.20;;;;;;;30.01;32.21;97170.56;5082586;28;20028;-29
2022/05/17 06:16:27;;;;;;;0.15;0.15;;;;;;;29.99;31.89;97173.28;5081910;28;20085;-32
2022/05/17 06:18:52;;;;;;;0.68;0.25;;;;;;;30.01;31.66;97167.91;5083274;28;20049;-30
2022/05/17 06:21:18;;;;;;;0.80;0.20;;;;;;;29.99;31.94;97176.78;5081849;28;20047;-32
2022/05/17 06:23:43;;;;;;;0.70;0.30;;;;;;;30.01;32.10;97168.75;5064829;28;20636;-32
2022/05/17 06:26:09;;;;;;;0.20;0.20;;;;;;;30.01;31.94;97170.56;5083487;28;20035;-29
2022/05/17 06:28:34;;;;;;;0.10;0.10;;;;;;;30.02;31.80;97174.88;5080921;28;20522;-29
2022/05/17 06:31:00;;;;;;;0.20;0.20;;;;;;;30.01;32.09;97171.38;5080380;28;20028;-30
2022/05/17 06:33:26;;;;;;;0.35;0.22;;;;;;;30.03;32.00;97171.28;5082178;28;20031;-28
2022/05/17 06:35:53;;;;;;;0.30;0.30;;;;;;;30.01;31.91;97170.56;5084766;28;20553;-30
2022/05/17 06:38:22;;;;;;;0.28;0.20;;;;;;;30.02;32.13;97174.88;5081650;28;20043;-32
2022/05/17 06:40:47;;;;;;;0.57;0.30;;;;;;;30.03;31.71;97176.56;5077582;28;20160;-30
2022/05/17 06:43:13;;;;;;;0.50;0.30;;;;;;;30.03;31.99;97176.56;5082465;28;20527;-30
2022/05/17 06:45:38;;;;;;;0.20;0.20;;;;;;;30.03;32.38;97176.56;5077351;28;20028;-32
2022/05/17 06:48:04;;;;;;;0.55;0.20;;;;;;;30.03;31.90;97176.56;5082124;28;20047;-32
2022/05/17 06:50:30;;;;;;;0.45;0.20;;;;;;;30.03;31.72;97181.88;5077663;28;20020;-30
2022/05/17 06:52:55;;;;;;;0.88;0.47;;;;;;;30.03;31.88;97173.94;5081870;28;20032;-34
2022/05/17 06:55:22;;;;;;;0.30;0.30;;;;;;;30.03;31.80;97176.56;5081911;28;20548;-32
2022/05/17 06:57:48;;;;;;;0.40;0.38;;;;;;;30.02;32.03;97180.19;5079455;28;20035;-30
2022/05/17 07:00:14;;;;;;;0.52;0.30;;;;;;;30.02;31.91;97182.81;5080539;28;20642;-31
2022/05/17 07:02:39;;;;;;;0.38;0.20;;;;;;;30.03;32.20;97181.88;5079370;28;20062;-32
2022/05/17 07:05:05;;;;;;;0.30;0.30;;;;;;;30.03;32.12;97184.50;5080366;28;20043;-32
2022/05/17 07:07:31;;;;;;;0.60;0.35;;;;;;;30.03;32.09;97181.88;5081031;28;20043;-32
2022/05/17 07:15:24;;;;;;;0.25;0.20;;;;;;;30.03;32.07;97184.50;5081461;28;20132;-31
2022/05/17 07:17:51;;;;;;;0.30;0.28;;;;;;;30.02;32.32;97191.59;5080745;28;20428;-29
2022/05/17 07:20:16;;;;;;;0.57;0.40;;;;;;;30.02;32.05;97183.69;5082601;28;20044;-30
2022/05/17 07:22:43;;;;;;;0.30;0.30;;;;;;;30.00;31.90;97174.97;5084971;28;20520;-30
2022/05/17 07:25:09;;;;;;;0.60;0.32;;;;;;;30.02;31.96;97180.19;5085269;28;21003;-31
2022/05/17 07:27:34;;;;;;;0.30;0.25;;;;;;;30.04;32.07;97183.56;5086110;28;20044;-29
2022/05/17 07:30:00;;;;;;;0.30;0.20;;;;;;;30.02;31.93;97175.75;5082574;28;20032;-30
2022/05/17 07:32:25;;;;;;;0.25;0.20;;;;;;;30.03;32.05;97182.72;5078482;28;20031;-31
2022/05/17 07:34:50;;;;;;;0.30;0.20;;;;;;;30.03;32.03;97176.56;5083397;28;20113;-31
2022/05/17 07:37:16;;;;;;;0.20;0.20;;;;;;;30.04;31.79;97172.97;5084883;28;20047;-31
2022/05/17 07:39:41;;;;;;;2.47;0.30;;;;;;;30.04;31.81;97170.34;5083776;28;20084;-30
2022/05/17 07:42:07;;;;;;;0.70;0.40;;;;;;;30.04;32.13;97178.28;5083242;28;20036;-32
2022/05/17 07:44:33;;;;;;;0.88;0.52;;;;;;;30.04;32.25;97173.84;5080488;28;20111;-30
2022/05/17 07:46:58;;;;;;;0.60;0.20;;;;;;;30.05;32.27;97172.06;5082779;28;20043;-30
2022/05/17 07:49:24;;;;;;;0.30;0.30;;;;;;;30.06;32.08;97179.03;5084745;28;20102;-31
2022/05/17 07:51:49;;;;;;;0.40;0.30;;;;;;;30.05;32.01;97174.69;5082411;28;20043;-30
2022/05/17 07:54:14;;;;;;;0.22;0.20;;;;;;;30.05;32.07;97178.16;5085399;28;20062;-30
2022/05/17 07:56:40;;;;;;;0.28;0.28;;;;;;;30.06;32.28;97181.69;5079247;28;20765;-31
2022/05/17 07:59:05;;;;;;;0.52;0.30;;;;;;;30.05;32.00;97175.53;5082811;28;20059;-31
2022/05/17 08:01:31;;;;;;;0.65;0.47;;;;;;;30.06;32.19;97176.38;5084090;28;21420;-29
2022/05/17 08:03:57;;;;;;;0.28;0.20;;;;;;;30.06;32.11;97181.69;5083997;28;20032;-29
2022/05/17 08:06:22;;;;;;;0.32;0.28;;;;;;;30.07;32.16;97175.44;5084286;28;20059;-30
2022/05/17 08:08:47;;;;;;;0.22;0.22;;;;;;;30.07;32.18;97178.06;5085951;28;20032;-30
2022/05/17 08:11:13;;;;;;;0.47;0.30;;;;;;;30.07;32.21;97172.78;5085596;28;20032;-30
2022/05/17 08:13:38;;;;;;;0.20;0.20;;;;;;;30.07;32.09;97172.78;5084818;28;20035;-32
2022/05/17 08:16:04;;;;;;;0.47;0.30;;;;;;;30.07;31.99;97170.16;5083269;28;20043;-30
2022/05/17 08:18:30;;;;;;;0.43;0.30;;;;;;;30.08;32.14;97174.47;5081701;28;20047;-29
2022/05/17 08:20:55;;;;;;;0.65;0.35;;;;;;;30.07;31.89;97167.50;5082030;28;20035;-32
2022/05/17 08:23:21;;;;;;;0.43;0.40;;;;;;;30.09;31.82;97163.00;5085631;28;20023;-32
2022/05/17 08:28:30;;;;;;;0.32;0.30;;;;;;;30.08;32.32;97159.47;5085101;28;20100;-30
2022/05/17 08:30:55;;;;;;;0.52;0.30;;;;;;;30.07;32.20;97163.09;5083318;28;20036;-31
2022/05/17 08:33:23;;;;;;;0.30;0.30;;;;;;;30.08;31.84;97163.91;5083203;28;20036;-30
2022/05/17 08:35:51;;;;;;;0.47;0.45;;;;;;;30.09;32.24;97158.53;5082791;28;20101;-29
2022/05/17 08:38:27;;;;;;;0.98;0.40;;;;;;;30.09;31.86;97165.63;5083495;28;20050;-29
2022/05/17 08:41:27;;;;;;;0.90;0.30;;;;;;;30.10;32.28;97167.31;5085148;28;20034;-30
2022/05/17 08:44:13;;;;;;;0.20;0.20;;;;;;;30.10;32.59;97168.16;5081837;28;20211;-31
2022/05/17 08:46:56;;;;;;;0.32;0.30;;;;;;;30.10;31.95;97168.16;5084730;28;20792;-30
2022/05/17 08:49:26;;;;;;;0.32;0.30;;;;;;;30.11;31.94;97169.00;5084707;28;20032;-30
2022/05/17 08:51:59;;;;;;;0.13;0.13;;;;;;;30.10;32.43;97162.03;5083072;28;20038;-31
2022/05/17 08:54:38;;;;;;;0.35;0.30;;;;;;;30.09;32.39;97158.53;5082160;28;20808;-31
2022/05/17 08:57:10;;;;;;;0.20;0.20;;;;;;;30.11;32.48;97163.72;5078843;28;20592;-29
2022/05/17 08:59:36;;;;;;;0.35;0.32;;;;;;;30.11;31.95;97161.06;5086471;28;20032;-29
2022/05/17 09:02:10;;;;;;;0.60;0.30;;;;;;;30.11;32.06;97163.72;5083085;28;20030;-31
2022/05/17 09:05:06;;;;;;;0.85;0.30;;;;;;;30.12;32.02;97152.22;5083018;28;20074;-29
2022/05/17 09:07:48;;;;;;;0.45;0.30;;;;;;;30.11;32.25;97154.00;5078614;28;20031;-31
2022/05/17 09:10:49;;;;;;;1.30;0.68;;;;;;;30.13;32.22;97153.91;5084398;28;20039;-33
2022/05/17 09:13:23;;;;;;;0.65;0.30;;;;;;;30.12;32.45;97150.44;5057035;28;20522;-30
2022/05/17 09:15:48;;;;;;;1.02;0.30;;;;;;;30.14;32.20;97157.41;5083586;28;20039;-30
2022/05/17 09:18:16;;;;;;;0.30;0.30;;;;;;;30.14;32.49;97162.69;5083084;28;20088;-30
2022/05/17 09:20:42;;;;;;;0.20;0.20;;;;;;;30.13;32.25;97156.56;5081730;28;20750;-30
2022/05/17 09:23:08;;;;;;;0.25;0.25;;;;;;;30.15;32.39;97151.16;5087036;28;20648;-31
2022/05/17 09:25:58;;;;;;;0.20;0.20;;;;;;;30.15;32.54;97149.38;5083216;28;20244;-30
2022/05/17 09:28:28;;;;;;;0.30;0.30;;;;;;;30.16;32.05;97161.66;5081534;28;20498;-30
2022/05/17 09:31:11;;;;;;;0.85;0.35;;;;;;;30.17;32.59;97162.50;5096669;28;20032;-30
2022/05/17 09:33:38;;;;;;;0.20;0.20;;;;;;;30.16;32.43;97156.38;5081313;28;20053;-33
2022/05/17 09:36:04;;;;;;;0.28;0.28;;;;;;;30.17;32.52;97157.22;5082999;28;20032;-30
2022/05/17 09:38:31;;;;;;;0.40;0.35;;;;;;;30.16;32.08;97156.38;5079666;28;20031;-30
2022/05/17 09:40:57;;;;;;;0.30;0.30;;;;;;;30.17;32.69;97158.06;5081725;28;20043;-30
2022/05/17 09:43:44;;;;;;;0.30;0.30;;;;;;;30.17;32.24;97160.69;5082467;28;20028;-30
2022/05/17 09:46:13;;;;;;;1.77;0.30;;;;;;;30.18;32.55;97153.63;5080887;28;20032;-28
2022/05/17 09:54:38;;;;;;;0.40;0.40;;;;;;;30.19;32.07;97150.88;5079559;28;20560;-31
2022/05/17 09:57:17;;;;;;;0.25;0.22;;;;;;;30.19;32.63;97150.88;5078437;28;20038;-31
2022/05/17 09:59:43;;;;;;;0.20;0.20;;;;;;;30.20;32.01;97146.44;5082688;28;20077;-29
2022/05/17 10:02:34;;;;;;;0.20;0.20;;;;;;;30.19;32.40;97150.88;5082116;28;20472;-32
2022/05/17 10:05:26;;;;;;;0.30;0.30;;;;;;;30.20;32.04;97152.56;5084023;28;20133;-30
2022/05/17 10:07:59;;;;;;;0.20;0.20;;;;;;;30.19;32.02;97148.25;5079701;28;20060;-31
2022/05/17 10:10:30;;;;;;;0.17;0.17;;;;;;;30.20;32.26;97151.72;5082794;28;20278;-30
2022/05/17 10:13:00;;;;;;;0.93;0.45;;;;;;;30.20;32.32;97151.72;5083804;28;20051;-31
2022/05/17 10:15:26;;;;;;;0.38;0.30;;;;;;;30.20;31.89;97147.28;5076772;28;20723;-30
2022/05/17 10:17:59;;;;;;;0.25;0.22;;;;;;;30.20;32.27;97142.00;5080644;28;20807;-30
2022/05/17 10:20:31;;;;;;;0.40;0.40;;;;;;;30.20;32.28;97149.94;5081716;28;20111;-29
2022/05/17 10:23:04;;;;;;;0.60;0.38;;;;;;;30.21;32.49;97148.97;5067120;28;20793;-29
2022/05/17 10:25:41;;;;;;;0.43;0.20;;;;;;;30.22;32.15;97142.75;5080624;28;20113;-28
2022/05/17 10:28:16;;;;;;;0.30;0.30;;;;;;;30.22;32.33;97140.13;5080772;28;20109;-27
2022/05/17 10:30:45;;;;;;;0.68;0.40;;;;;;;30.22;32.47;97128.69;5083375;28;20503;-30
2022/05/17 10:33:15;;;;;;;0.30;0.30;;;;;;;30.23;32.72;97131.22;5082902;28;20031;-29
2022/05/17 10:35:44;;;;;;;0.20;0.20;;;;;;;30.23;31.98;97125.94;5083059;28;20023;-31
2022/05/17 10:38:22;;;;;;;0.20;0.20;;;;;;;30.23;32.18;97120.66;5077118;28;20064;-29
2022/05/17 10:40:50;;;;;;;0.47;0.20;;;;;;;30.24;32.52;97117.06;5080327;28;20025;-32
2022/05/17 10:43:37;;;;;;;1.17;0.30;;;;;;;30.24;32.04;97119.69;5082012;28;20028;-28
2022/05/17 10:46:06;;;;;;;0.63;0.40;;;;;;;30.24;32.60;97122.34;5080531;28;20050;-29
2022/05/17 10:48:49;;;;;;;0.32;0.32;;;;;;;30.25;32.34;97118.75;5081378;28;20058;-30
2022/05/17 10:51:18;;;;;;;0.20;0.20;;;;;;;30.25;32.36;97113.47;5095651;28;20469;-29
2022/05/17 10:54:05;;;;;;;0.35;0.25;;;;;;;30.27;32.35;97115.16;5084172;28;20038;-29
2022/05/17 10:56:55;;;;;;;0.30;0.20;;;;;;;30.26;32.15;97111.66;5084725;28;20027;-31
2022/05/17 10:59:29;;;;;;;0.30;0.30;;;;;;;30.27;32.46;97105.44;5086359;28;20032;-29
2022/05/17 11:02:37;;;;;;;1.75;0.30;;;;;;;30.22;32.00;97089.91;5085945;27;20073;-29
2022/05/17 11:05:12;;;;;;;0.38;0.35;;;;;;;30.28;32.38;97101.00;5077773;28;20119;-32
2022/05/17 11:07:58;;;;;;;0.73;0.40;;;;;;;30.28;32.22;97104.47;5084994;28;20020;-31
2022/05/17 11:10:46;;;;;;;0.20;0.20;;;;;;;30.28;32.64;97093.06;5082311;28;20510;-31
2022/05/17 11:13:32;;;;;;;0.40;0.30;;;;;;;30.30;32.51;97107.00;5086900;28;20819;-30
2022/05/17 11:16:07;;;;;;;0.43;0.20;;;;;;;30.28;32.15;97096.53;5083389;28;20063;-30
2022/05/17 11:18:50;;;;;;;0.20;0.20;;;;;;;30.29;32.37;97097.41;5086404;28;20032;-28
2022/05/17 11:21:29;;;;;;;0.20;0.20;;;;;;;30.29;32.87;97087.69;5085362;28;20120;-31
2022/05/17 11:24:49;;;;;;;0.13;0.13;;;;;;;30.30;32.61;97088.50;5077358;28;20458;-32
2022/05/17 11:27:32;;;;;;;0.30;0.30;;;;;;;30.31;32.12;97090.19;5009461;28;20081;-30
2022/05/17 11:30:16;;;;;;;0.20;0.20;;;;;;;30.30;32.82;97086.72;5084490;28;20107;-29
2022/05/17 11:33:07;;;;;;;0.22;0.20;;;;;;;30.30;32.81;97077.94;5084777;28;20096;-30
2022/05/17 11:35:33;;;;;;;0.45;0.30;;;;;;;30.31;32.39;97085.78;5085596;28;20457;-32
2022/05/17 11:37:58;;;;;;;0.30;0.30;;;;;;;30.31;32.71;97075.19;5086068;28;20044;-29
2022/05/17 11:40:47;;;;;;;0.20;0.20;;;;;;;30.31;32.56;97069.91;5084765;28;20049;-31
2022/05/17 11:45:57;;;;;;;0.55;0.20;;;;;;;30.34;32.41;97066.22;5083186;28;20042;-32
2022/05/17 11:48:46;;;;;;;0.20;0.20;;;;;;;30.34;32.22;97064.41;5082765;28;20039;-29
2022/05/17 11:51:11;;;;;;;0.20;0.20;;;;;;;30.34;32.87;97058.28;5081690;28;20074;-30
2022/05/17 11:53:44;;;;;;;0.20;0.20;;;;;;;30.33;32.18;97057.41;5082393;28;20035;-31
2022/05/17 11:56:18;;;;;;;0.22;0.20;;;;;;;30.35;32.68;97059.97;5084552;28;20517;-33
2022/05/17 11:58:51;;;;;;;0.25;0.20;;;;;;;30.36;32.41;97059.88;5081373;28;20715;-29
2022/05/17 12:01:37;;;;;;;0.20;0.20;;;;;;;30.36;32.78;97056.38;5083303;28;20027;-30
2022/05/17 12:04:21;;;;;;;0.30;0.30;;;;;;;30.37;32.60;97060.72;5072257;28;20984;-29